createdAt,value
2022-09-17T00:00:57.101Z,18.40
2022-09-17T00:04:04.856Z,18.29
2022-09-17T00:07:10.537Z,18.07
2022-09-17T00:10:16.824Z,18.01
2022-09-17T00:13:22.887Z,17.70
2022-09-17T00:16:31.825Z,17.76
2022-09-17T00:19:37.374Z,17.55
2022-09-17T00:22:43.095Z,17.49
2022-09-17T00:25:48.768Z,17.45
2022-09-17T00:28:56.977Z,17.27
2022-09-17T00:32:02.474Z,17.33
2022-09-17T00:35:08.324Z,17.32
2022-09-17T00:38:13.648Z,17.06
2022-09-17T00:41:20.806Z,17.19
2022-09-17T00:44:48.428Z,17.17
2022-09-17T00:48:06.515Z,17.11
2022-09-17T00:51:18.930Z,17.21
2022-09-17T00:54:25.186Z,17.09
2022-09-17T00:57:32.562Z,17.10
2022-09-17T01:00:39.272Z,17.08
2022-09-17T01:03:45.286Z,16.92
2022-09-17T01:07:23.191Z,16.99
2022-09-17T01:11:00.658Z,16.91
2022-09-17T01:14:38.266Z,16.75
2022-09-17T01:18:09.451Z,16.81
2022-09-17T01:21:33.706Z,16.91
2022-09-17T01:25:08.148Z,16.86
2022-09-17T01:28:35.723Z,16.87
2022-09-17T01:31:41.045Z,16.80
2022-09-17T01:35:05.739Z,16.68
2022-09-17T01:38:16.938Z,16.65
2022-09-17T01:41:40.775Z,16.73
2022-09-17T01:44:56.134Z,16.64
2022-09-17T01:48:20.241Z,16.67
2022-09-17T01:51:30.544Z,16.81
2022-09-17T01:54:42.541Z,16.88
2022-09-17T01:57:56.183Z,16.73
2022-09-17T02:01:08.074Z,16.59
2022-09-17T02:04:23.576Z,16.65
2022-09-17T02:07:33.068Z,16.79
2022-09-17T02:10:47.862Z,16.75
2022-09-17T02:14:19.234Z,16.79
2022-09-17T02:17:24.212Z,16.78
2022-09-17T02:20:49.312Z,16.61
2022-09-17T02:24:07.654Z,16.73
2022-09-17T02:27:31.656Z,16.77
2022-09-17T02:30:37.477Z,16.67
2022-09-17T02:33:47.344Z,16.74
2022-09-17T02:36:52.965Z,16.78
2022-09-17T02:39:59.237Z,16.70
2022-09-17T02:43:41.967Z,16.76
2022-09-17T02:46:57.429Z,16.84
2022-09-17T02:50:30.369Z,16.61
2022-09-17T02:54:06.995Z,16.55
2022-09-17T02:57:30.375Z,16.65
2022-09-17T03:00:36.758Z,16.58
2022-09-17T03:03:46.120Z,16.52
2022-09-17T03:06:53.985Z,16.51
2022-09-17T03:10:00.113Z,16.48
2022-09-17T03:13:05.971Z,16.49
2022-09-17T03:16:11.523Z,16.51
2022-09-17T03:19:17.125Z,16.65
2022-09-17T03:22:22.920Z,16.51
2022-09-17T03:25:28.531Z,16.59
2022-09-17T03:28:35.029Z,16.48
2022-09-17T03:31:41.460Z,16.57
2022-09-17T03:34:47.380Z,16.52
2022-09-17T03:37:52.681Z,16.54
2022-09-17T03:41:04.479Z,16.63
2022-09-17T03:44:10.855Z,16.63
2022-09-17T03:47:17.360Z,16.56
2022-09-17T03:50:22.875Z,16.40
2022-09-17T03:53:28.887Z,16.30
2022-09-17T03:56:35.127Z,16.39
2022-09-17T03:59:40.222Z,16.01
2022-09-17T04:02:45.737Z,15.96
2022-09-17T04:05:52.390Z,15.98
2022-09-17T04:08:57.930Z,16.16
2022-09-17T04:12:04.033Z,16.03
2022-09-17T04:15:10.477Z,16.14
2022-09-17T04:18:16.650Z,16.06
2022-09-17T04:21:21.864Z,16.01
2022-09-17T04:24:27.409Z,16.00
2022-09-17T04:27:33.883Z,16.03
2022-09-17T04:30:39.723Z,16.03
2022-09-17T04:33:44.959Z,15.91
2022-09-17T04:36:50.632Z,15.80
2022-09-17T04:39:56.335Z,15.93
2022-09-17T04:43:03.730Z,15.89
2022-09-17T04:46:09.450Z,15.93
2022-09-17T04:49:15.082Z,15.80
2022-09-17T04:52:20.635Z,15.83
2022-09-17T04:55:28.069Z,15.86
2022-09-17T04:58:33.949Z,15.75
2022-09-17T05:01:39.819Z,15.74
2022-09-17T05:04:45.840Z,15.71
2022-09-17T05:07:51.565Z,15.86
2022-09-17T05:10:58.167Z,15.74
2022-09-17T05:14:03.597Z,15.78
2022-09-17T05:17:09.392Z,15.71
2022-09-17T05:20:16.565Z,15.67
2022-09-17T05:23:22.185Z,15.47
2022-09-17T05:26:27.831Z,15.38
2022-09-17T05:29:33.661Z,15.34
2022-09-17T05:32:41.220Z,15.20
2022-09-17T05:35:47.553Z,15.16
2022-09-17T05:38:52.977Z,15.18
2022-09-17T05:42:00.017Z,15.02
2022-09-17T05:45:06.729Z,14.86
2022-09-17T05:48:14.598Z,15.08
2022-09-17T05:51:19.897Z,15.16
2022-09-17T05:54:25.618Z,15.12
2022-09-17T05:57:31.165Z,15.16
2022-09-17T06:00:37.404Z,14.95
2022-09-17T06:03:43.296Z,14.98
2022-09-17T06:06:48.534Z,14.98
2022-09-17T06:09:54.264Z,15.04
2022-09-17T06:13:00.751Z,15.18
2022-09-17T06:16:07.039Z,15.09
2022-09-17T06:19:12.681Z,15.14
2022-09-17T06:22:20.873Z,15.27
2022-09-17T06:25:26.992Z,15.18
2022-09-17T06:28:35.778Z,15.17
2022-09-17T06:31:45.297Z,15.27
2022-09-17T06:34:51.220Z,15.30
2022-09-17T06:37:56.934Z,15.36
2022-09-17T06:41:02.979Z,15.28
2022-09-17T06:44:08.690Z,15.24
2022-09-17T06:47:13.896Z,15.36
2022-09-17T06:50:20.082Z,15.15
2022-09-17T06:53:25.431Z,14.85
2022-09-17T06:56:31.093Z,14.88
2022-09-17T06:59:38.199Z,14.75
2022-09-17T07:02:56.672Z,14.58
2022-09-17T07:06:03.362Z,14.97
2022-09-17T07:09:11.098Z,14.88
2022-09-17T07:12:16.982Z,14.71
2022-09-17T07:15:22.411Z,14.44
2022-09-17T07:18:28.358Z,14.43
2022-09-17T07:21:33.492Z,14.33
2022-09-17T07:24:38.654Z,14.36
2022-09-17T07:27:43.602Z,14.30
2022-09-17T07:30:50.617Z,13.98
2022-09-17T07:33:56.568Z,14.01
2022-09-17T07:37:01.810Z,14.10
2022-09-17T07:40:08.375Z,13.92
2022-09-17T07:43:15.536Z,13.88
2022-09-17T07:46:22.157Z,14.06
2022-09-17T07:49:27.306Z,13.89
2022-09-17T07:52:32.870Z,13.85
2022-09-17T07:55:39.230Z,13.67
2022-09-17T07:58:44.904Z,13.42
2022-09-17T08:01:51.431Z,13.41
2022-09-17T08:04:57.676Z,13.35
2022-09-17T08:08:04.154Z,13.44
2022-09-17T08:11:12.065Z,13.20
2022-09-17T08:14:17.787Z,13.05
2022-09-17T08:17:23.240Z,13.21
2022-09-17T08:20:28.422Z,13.35
2022-09-17T08:23:38.887Z,13.42
2022-09-17T08:26:44.119Z,13.57
2022-09-17T08:29:50.198Z,13.75
2022-09-17T08:32:57.217Z,13.63
2022-09-17T08:36:03.652Z,13.78
2022-09-17T08:39:11.471Z,13.87
2022-09-17T08:42:42.491Z,13.66
2022-09-17T08:45:54.949Z,13.77
2022-09-17T08:49:30.678Z,13.77
2022-09-17T08:53:02.977Z,13.90
2022-09-17T08:56:16.421Z,14.01
2022-09-17T09:00:05.938Z,14.10
2022-09-17T09:03:29.687Z,14.12
2022-09-17T09:06:47.299Z,14.19
2022-09-17T09:10:04.650Z,14.30
2022-09-17T09:13:11.940Z,14.29
2022-09-17T09:16:26.326Z,14.19
2022-09-17T09:19:41.543Z,14.23
2022-09-17T09:22:52.597Z,14.27
2022-09-17T09:26:27.281Z,14.35
2022-09-17T09:30:05.788Z,14.57
2022-09-17T09:33:19.459Z,14.73
2022-09-17T09:36:29.483Z,15.01
2022-09-17T09:39:41.268Z,14.88
2022-09-17T09:42:49.994Z,15.02
2022-09-17T09:45:55.213Z,14.84
2022-09-17T09:49:27.924Z,15.06
2022-09-17T09:52:56.854Z,15.17
2022-09-17T09:56:26.307Z,15.48
2022-09-17T09:59:32.013Z,15.62
2022-09-17T10:02:37.510Z,15.65
2022-09-17T10:06:17.371Z,15.80
2022-09-17T10:09:22.915Z,15.89
2022-09-17T10:12:28.197Z,16.03
2022-09-17T10:15:33.556Z,16.06
2022-09-17T10:18:38.787Z,16.15
2022-09-17T10:21:44.094Z,15.89
2022-09-17T10:24:51.452Z,16.13
2022-09-17T10:27:59.891Z,16.36
2022-09-17T10:31:10.616Z,15.77
2022-09-17T10:34:22.195Z,16.06
2022-09-17T10:37:36.537Z,16.23
2022-09-17T10:40:41.947Z,15.99
2022-09-17T10:43:49.346Z,16.14
2022-09-17T10:46:56.185Z,16.18
2022-09-17T10:50:08.776Z,16.06
2022-09-17T10:53:18.278Z,16.12
2022-09-17T10:56:31.454Z,16.08
2022-09-17T10:59:53.832Z,16.25
2022-09-17T11:03:28.797Z,16.10
2022-09-17T11:07:19.383Z,16.23
2022-09-17T11:10:42.900Z,16.92
2022-09-17T11:14:20.847Z,17.18
2022-09-17T11:17:38.794Z,17.25
2022-09-17T11:20:53.360Z,17.01
2022-09-17T11:24:15.968Z,16.95
2022-09-17T11:27:48.102Z,17.11
2022-09-17T11:31:01.874Z,17.04
2022-09-17T11:34:29.332Z,17.22
2022-09-17T11:37:57.798Z,17.39
2022-09-17T11:41:10.082Z,17.01
2022-09-17T11:44:28.125Z,17.38
2022-09-17T11:47:38.027Z,17.28
2022-09-17T11:51:16.214Z,17.90
2022-09-17T11:54:48.442Z,17.34
2022-09-17T11:58:01.156Z,16.97
2022-09-17T12:01:38.315Z,17.19
2022-09-17T12:05:03.792Z,17.76
2022-09-17T12:08:17.994Z,18.30
2022-09-17T12:11:28.929Z,18.24
2022-09-17T12:14:52.514Z,18.13
2022-09-17T12:18:32.981Z,17.39
2022-09-17T12:21:52.955Z,17.49
2022-09-17T12:24:58.369Z,17.37
2022-09-17T12:28:14.820Z,17.74
2022-09-17T12:31:49.131Z,17.30
2022-09-17T12:35:12.877Z,17.63
2022-09-17T12:38:29.989Z,18.07
2022-09-17T12:42:00.437Z,18.24
2022-09-17T12:45:22.115Z,18.05
2022-09-17T12:49:02.365Z,17.97
2022-09-17T12:52:43.245Z,18.23
2022-09-17T12:56:44.124Z,18.34
2022-09-17T13:00:05.424Z,18.56
2022-09-17T13:03:36.199Z,18.18
2022-09-17T13:07:18.011Z,18.07
2022-09-17T13:10:52.506Z,18.58
2022-09-17T13:14:11.059Z,18.70
2022-09-17T13:18:06.332Z,18.41
2022-09-17T13:21:24.599Z,18.46
2022-09-17T13:24:31.798Z,18.68
2022-09-17T13:27:38.936Z,18.48
2022-09-17T13:31:02.086Z,18.54
2022-09-17T13:34:32.597Z,18.55
2022-09-17T13:37:43.055Z,18.38
2022-09-17T13:40:48.570Z,17.87
2022-09-17T13:43:56.438Z,18.03
2022-09-17T13:47:35.526Z,18.44
2022-09-17T13:50:45.154Z,18.61
2022-09-17T13:53:55.903Z,18.95
2022-09-17T13:57:10.113Z,18.77
2022-09-17T14:00:54.769Z,18.68
2022-09-17T14:04:01.031Z,18.82
2022-09-17T14:07:26.716Z,18.60
2022-09-17T14:10:41.853Z,18.75
2022-09-17T14:13:47.785Z,19.03
2022-09-17T14:16:53.755Z,18.92
2022-09-17T14:19:59.653Z,18.48
2022-09-17T14:23:05.325Z,18.54
2022-09-17T14:26:24.398Z,18.89
2022-09-17T14:30:00.077Z,19.10
2022-09-17T14:33:18.161Z,18.81
2022-09-17T14:36:25.097Z,18.97
2022-09-17T14:39:38.684Z,18.95
2022-09-17T14:42:46.604Z,19.06
2022-09-17T14:45:53.946Z,19.26
2022-09-17T14:49:25.565Z,19.19
2022-09-17T14:52:33.110Z,19.30
2022-09-17T14:55:42.106Z,19.30
2022-09-17T14:58:53.951Z,18.97
2022-09-17T15:01:59.738Z,19.33
2022-09-17T15:05:27.091Z,19.04
2022-09-17T15:08:32.665Z,19.00
2022-09-17T15:11:43.328Z,19.25
2022-09-17T15:14:49.066Z,19.03
2022-09-17T15:17:54.892Z,19.27
2022-09-17T15:21:03.788Z,19.18
2022-09-17T15:24:24.217Z,19.13
2022-09-17T15:27:42.394Z,19.04
2022-09-17T15:30:51.290Z,19.15
2022-09-17T15:34:01.372Z,18.87
2022-09-17T15:37:28.732Z,18.87
2022-09-17T15:40:40.252Z,18.88
2022-09-17T15:43:47.612Z,18.70
2022-09-17T15:46:57.166Z,18.64
2022-09-17T15:50:17.504Z,18.47
2022-09-17T15:53:31.315Z,18.53
2022-09-17T15:56:40.512Z,18.42
2022-09-17T15:59:46.415Z,18.47
2022-09-17T16:02:52.598Z,18.54
2022-09-17T16:06:02.691Z,18.48
2022-09-17T16:09:39.554Z,18.41
2022-09-17T16:12:45.679Z,18.10
2022-09-17T16:15:51.246Z,18.27
2022-09-17T16:18:57.120Z,18.33
2022-09-17T16:22:02.582Z,18.41
2022-09-17T16:25:08.516Z,18.35
2022-09-17T16:28:19.652Z,18.31
2022-09-17T16:31:25.458Z,18.27
2022-09-17T16:34:31.044Z,18.24
2022-09-17T16:37:36.558Z,18.02
2022-09-17T16:40:47.693Z,18.03
2022-09-17T16:43:53.245Z,18.09
2022-09-17T16:46:58.963Z,17.99
2022-09-17T16:50:06.385Z,17.69
2022-09-17T16:53:13.381Z,17.60
2022-09-17T16:56:18.921Z,17.62
2022-09-17T16:59:24.258Z,17.48
2022-09-17T17:02:29.693Z,17.42
2022-09-17T17:05:38.419Z,17.39
2022-09-17T17:08:44.100Z,17.29
2022-09-17T17:11:50.979Z,17.33
2022-09-17T17:14:56.239Z,17.17
2022-09-17T17:18:01.755Z,17.10
2022-09-17T17:21:09.435Z,17.01
2022-09-17T17:24:14.861Z,16.83
2022-09-17T17:27:20.692Z,16.92
2022-09-17T17:30:26.207Z,16.69
2022-09-17T17:33:32.245Z,16.72
2022-09-17T17:36:37.626Z,16.72
2022-09-17T17:39:43.293Z,16.72
2022-09-17T17:42:52.753Z,16.79
2022-09-17T17:45:58.629Z,16.64
2022-09-17T17:49:04.253Z,16.57
2022-09-17T17:52:09.487Z,16.52
2022-09-17T17:55:15.529Z,16.34
2022-09-17T17:58:20.903Z,16.47
2022-09-17T18:01:28.620Z,16.46
2022-09-17T18:04:34.018Z,16.52
2022-09-17T18:07:39.300Z,16.42
2022-09-17T18:10:55.966Z,16.31
2022-09-17T18:14:02.295Z,16.26
2022-09-17T18:17:07.717Z,16.26
2022-09-17T18:20:13.405Z,16.03
2022-09-17T18:23:18.798Z,16.01
2022-09-17T18:26:26.671Z,15.94
2022-09-17T18:29:32.137Z,15.89
2022-09-17T18:32:38.189Z,15.82
2022-09-17T18:35:43.501Z,15.83
2022-09-17T18:38:52.958Z,15.82
2022-09-17T18:41:58.620Z,15.80
2022-09-17T18:45:04.749Z,15.79
2022-09-17T18:48:10.380Z,15.75
2022-09-17T18:51:15.905Z,15.64
2022-09-17T18:54:21.602Z,15.66
2022-09-17T18:57:26.810Z,15.51
2022-09-17T19:00:31.982Z,15.62
2022-09-17T19:03:38.342Z,15.47
2022-09-17T19:06:43.869Z,15.43
2022-09-17T19:09:50.054Z,15.55
2022-09-17T19:12:55.846Z,15.60
2022-09-17T19:16:03.456Z,15.48
2022-09-17T19:19:09.023Z,15.50
2022-09-17T19:22:14.665Z,15.29
2022-09-17T19:25:21.025Z,15.40
2022-09-17T19:28:26.097Z,15.41
2022-09-17T19:31:32.423Z,15.27
2022-09-17T19:34:38.546Z,15.18
2022-09-17T19:37:45.911Z,15.29
2022-09-17T19:40:59.956Z,15.33
2022-09-17T19:44:05.637Z,15.47
2022-09-17T19:47:11.051Z,15.57
2022-09-17T19:50:16.530Z,15.47
2022-09-17T19:53:22.582Z,15.37
2022-09-17T19:56:28.469Z,15.29
2022-09-17T19:59:34.349Z,15.14
2022-09-17T20:02:40.063Z,15.01
2022-09-17T20:05:45.614Z,15.13
2022-09-17T20:08:55.678Z,15.10
2022-09-17T20:12:01.511Z,15.18
2022-09-17T20:15:07.403Z,15.20
2022-09-17T20:18:12.920Z,15.16
2022-09-17T20:21:23.125Z,15.11
2022-09-17T20:24:28.800Z,14.80
2022-09-17T20:27:34.686Z,14.99
2022-09-17T20:30:40.106Z,15.05
2022-09-17T20:33:46.688Z,14.98
2022-09-17T20:37:06.498Z,15.05
2022-09-17T20:40:18.106Z,15.15
2022-09-17T20:43:24.670Z,14.85
2022-09-17T20:46:30.517Z,14.82
2022-09-17T20:49:36.156Z,14.67
2022-09-17T20:52:41.665Z,14.42
2022-09-17T20:55:55.773Z,14.49
2022-09-17T20:59:13.262Z,14.38
2022-09-17T21:02:21.221Z,14.33
2022-09-17T21:05:26.765Z,14.40
2022-09-17T21:08:32.954Z,14.46
2022-09-17T21:11:38.855Z,14.48
2022-09-17T21:14:43.885Z,14.64
2022-09-17T21:17:49.163Z,14.61
2022-09-17T21:20:54.794Z,14.57
2022-09-17T21:24:05.880Z,14.71
2022-09-17T21:27:11.335Z,14.50
2022-09-17T21:30:16.762Z,14.61
2022-09-17T21:33:22.422Z,14.37
2022-09-17T21:36:31.284Z,14.31
2022-09-17T21:39:36.749Z,14.20
2022-09-17T21:42:42.234Z,14.28
2022-09-17T21:46:01.039Z,14.27
2022-09-17T21:49:07.026Z,14.31
2022-09-17T21:52:12.342Z,14.47
2022-09-17T21:55:17.547Z,14.47
2022-09-17T21:58:23.235Z,14.42
2022-09-17T22:01:47.214Z,14.23
2022-09-17T22:04:52.689Z,13.82
2022-09-17T22:07:58.168Z,13.94
2022-09-17T22:11:26.052Z,13.92
2022-09-17T22:14:31.486Z,13.71
2022-09-17T22:17:37.856Z,13.87
2022-09-17T22:20:43.308Z,13.76
2022-09-17T22:23:50.509Z,13.69
2022-09-17T22:26:58.091Z,13.65
2022-09-17T22:30:04.671Z,13.76
2022-09-17T22:33:10.108Z,13.66
2022-09-17T22:36:21.459Z,13.49
2022-09-17T22:39:27.231Z,13.44
2022-09-17T22:42:32.833Z,13.54
2022-09-17T22:45:38.389Z,13.27
2022-09-17T22:48:44.071Z,13.30
2022-09-17T22:51:49.758Z,13.30
2022-09-17T22:54:54.916Z,13.41
2022-09-17T22:58:00.187Z,13.51
2022-09-17T23:01:09.344Z,13.63
2022-09-17T23:04:14.554Z,13.74
2022-09-17T23:07:19.688Z,13.68
2022-09-17T23:10:25.282Z,13.69
2022-09-17T23:13:31.461Z,13.71
2022-09-17T23:16:40.091Z,13.64
2022-09-17T23:19:45.636Z,13.44
2022-09-17T23:22:50.863Z,13.19
2022-09-17T23:25:56.288Z,13.12
2022-09-17T23:29:05.229Z,13.23
2022-09-17T23:32:11.039Z,13.25
2022-09-17T23:35:16.251Z,13.33
2022-09-17T23:38:21.788Z,13.28
2022-09-17T23:41:29.810Z,13.15
2022-09-17T23:44:36.394Z,13.34
2022-09-17T23:47:41.642Z,13.23
2022-09-17T23:50:47.215Z,13.18
2022-09-17T23:53:52.863Z,13.19
2022-09-17T23:56:58.597Z,13.03
